Time;durP1;ratioP1;P1;durP2;ratioP2;P2;SDS_P1;SDS_P2;PMS_P1;PMS_P2;Temp;Humidity;BMP_temperature;BMP_pressure;BME280_temperature;BME280_humidity;BME280_pressure;Samples;Min_cycle;Max_cycle;Signal;HPM_P1;HPM_P2
2022/06/28 00:00:08;;;;;;;4.33;3.80;;;16.80;99.90;;;;;;4955237;28;20423;-86
2022/06/28 00:02:34;;;;;;;5.60;3.87;;;16.80;99.90;;;;;;4954479;28;20467;-86
2022/06/28 00:05:00;;;;;;;6.73;3.70;;;16.80;99.90;;;;;;4955318;28;20516;-87
2022/06/28 00:07:25;;;;;;;6.47;3.30;;;16.80;99.90;;;;;;4955087;29;20171;-86
2022/06/28 00:09:51;;;;;;;4.90;3.13;;;16.80;99.90;;;;;;4954791;28;20754;-88
2022/06/28 00:12:16;;;;;;;4.60;3.30;;;16.80;99.90;;;;;;4954019;28;20579;-89
2022/06/28 00:17:29;;;;;;;3.63;2.80;;;16.80;99.90;;;;;;4954700;29;20248;-87
2022/06/28 00:19:54;;;;;;;3.50;3.20;;;16.80;99.90;;;;;;4953364;28;20428;-86
2022/06/28 00:22:20;;;;;;;3.23;2.80;;;16.80;99.90;;;;;;4953521;28;20425;-87
2022/06/28 00:24:45;;;;;;;4.03;2.80;;;16.80;99.90;;;;;;4955050;28;20213;-89
2022/06/28 00:27:11;;;;;;;3.03;2.70;;;16.80;99.90;;;;;;4939209;28;20174;-88
2022/06/28 00:29:36;;;;;;;4.20;3.13;;;16.90;99.90;;;;;;4953716;29;20180;-87
2022/06/28 00:32:02;;;;;;;6.30;3.00;;;16.90;99.90;;;;;;4954330;28;20187;-87
2022/06/28 00:34:28;;;;;;;5.63;3.27;;;16.90;99.90;;;;;;4954755;28;20171;-88
2022/06/28 00:36:53;;;;;;;5.30;3.70;;;16.90;99.90;;;;;;4953400;29;20631;-87
2022/06/28 00:39:19;;;;;;;5.77;3.30;;;16.90;99.90;;;;;;4953067;29;20258;-88
2022/06/28 00:41:48;;;;;;;4.00;2.43;;;16.70;99.90;;;;;;4954499;28;20294;-89
2022/06/28 00:44:14;;;;;;;7.47;3.20;;;16.70;99.90;;;;;;4955556;28;20223;-89
2022/06/28 00:46:39;;;;;;;4.87;3.53;;;16.70;99.90;;;;;;4953064;28;20481;-87
2022/06/28 00:49:06;;;;;;;4.90;3.87;;;16.70;99.90;;;;;;4954368;28;20254;-88
2022/06/28 00:51:33;;;;;;;5.30;4.20;;;16.70;99.90;;;;;;4953021;29;20556;-87
2022/06/28 00:53:59;;;;;;;5.17;4.50;;;16.70;99.90;;;;;;4953144;29;20430;-87
2022/06/28 00:56:24;;;;;;;5.87;4.97;;;16.70;99.90;;;;;;4954307;28;20842;-87
2022/06/28 00:58:55;;;;;;;6.57;5.50;;;16.70;99.90;;;;;;4954112;29;20188;-87
2022/06/28 01:01:22;;;;;;;6.43;4.83;;;16.60;99.90;;;;;;4952426;29;20178;-86
2022/06/28 01:03:47;;;;;;;4.90;4.50;;;16.60;99.90;;;;;;4953911;28;20485;-86
2022/06/28 01:06:13;;;;;;;5.60;4.03;;;16.70;99.90;;;;;;4953017;28;20432;-87
2022/06/28 01:08:40;;;;;;;7.50;6.10;;;16.60;99.90;;;;;;4954091;29;20262;-87
2022/06/28 01:11:18;;;;;;;5.60;4.77;;;16.60;99.90;;;;;;4954263;28;20186;-88
2022/06/28 01:13:59;;;;;;;6.23;4.80;;;16.60;99.90;;;;;;4954637;28;20421;-88
2022/06/28 01:16:26;;;;;;;5.50;5.00;;;16.50;99.90;;;;;;4954034;29;20413;-86
2022/06/28 01:18:52;;;;;;;5.43;4.67;;;16.40;99.90;;;;;;4953796;28;20456;-87
2022/06/28 01:21:17;;;;;;;5.57;4.97;;;16.30;99.90;;;;;;4952649;29;20508;-87
2022/06/28 01:23:45;;;;;;;8.13;5.63;;;16.30;99.90;;;;;;4953978;28;20213;-87
2022/06/28 01:26:14;;;;;;;5.50;4.90;;;16.30;99.90;;;;;;4957817;28;20218;-86
2022/06/28 01:28:43;;;;;;;7.10;5.70;;;16.10;99.90;;;;;;4956528;29;20455;-86
2022/06/28 01:31:10;;;;;;;8.00;5.90;;;16.10;99.90;;;;;;4957331;29;20506;-87
2022/06/28 01:33:37;;;;;;;7.07;5.33;;;16.10;99.90;;;;;;4957591;28;20421;-86
2022/06/28 01:36:04;;;;;;;6.10;5.50;;;16.00;99.90;;;;;;4957679;28;20405;-87
2022/06/28 01:38:30;;;;;;;7.80;5.87;;;15.80;99.90;;;;;;4958226;28;20419;-86
2022/06/28 01:40:56;;;;;;;6.80;5.67;;;15.80;99.90;;;;;;4969313;29;21114;-86
2022/06/28 01:43:21;;;;;;;9.07;6.23;;;15.80;99.90;;;;;;4958230;29;20479;-86
2022/06/28 01:45:50;;;;;;;7.30;6.13;;;15.80;99.90;;;;;;4957469;29;20179;-86
2022/06/28 01:48:18;;;;;;;7.00;4.43;;;15.80;99.90;;;;;;4958118;28;20420;-86
2022/06/28 01:50:44;;;;;;;5.27;4.63;;;15.90;99.90;;;;;;4956575;29;20492;-85
2022/06/28 01:53:10;;;;;;;7.23;4.90;;;15.90;99.90;;;;;;4957380;28;20775;-86
2022/06/28 01:55:35;;;;;;;8.30;5.23;;;15.80;99.90;;;;;;4957218;28;20423;-85
2022/06/28 01:58:01;;;;;;;6.10;5.47;;;15.90;99.90;;;;;;4957245;28;20187;-86
2022/06/28 02:00:28;;;;;;;9.17;5.03;;;15.80;99.90;;;;;;4955778;29;20186;-86
2022/06/28 02:02:54;;;;;;;6.83;6.07;;;15.80;99.90;;;;;;4956735;28;20463;-86
2022/06/28 02:05:20;;;;;;;8.53;6.20;;;15.80;99.90;;;;;;4957097;28;21130;-87
2022/06/28 02:07:47;;;;;;;6.97;6.27;;;15.90;99.90;;;;;;4955913;28;20643;-84
2022/06/28 02:10:13;;;;;;;9.90;6.30;;;15.90;99.90;;;;;;4956842;29;20220;-86
2022/06/28 02:12:38;;;;;;;8.63;6.10;;;15.90;99.90;;;;;;4957988;28;20416;-85
2022/06/28 02:15:04;;;;;;;8.00;6.57;;;15.90;99.90;;;;;;4956768;29;20179;-84
2022/06/28 02:17:30;;;;;;;9.57;6.63;;;15.90;99.90;;;;;;4957438;28;20188;-87
2022/06/28 02:19:55;;;;;;;11.77;7.60;;;15.80;99.90;;;;;;4957873;29;20899;-86
2022/06/28 02:22:21;;;;;;;8.10;7.27;;;15.80;99.90;;;;;;4957899;29;20188;-87
2022/06/28 02:24:46;;;;;;;8.70;7.77;;;15.80;99.90;;;;;;4957913;29;20190;-86
2022/06/28 02:27:12;;;;;;;9.67;7.20;;;15.80;99.90;;;;;;4956590;29;20271;-86
2022/06/28 02:29:37;;;;;;;9.90;7.80;;;15.80;99.90;;;;;;4956517;29;20647;-86
2022/06/28 02:32:03;;;;;;;10.77;8.53;;;15.90;99.90;;;;;;4957479;29;20238;-85
2022/06/28 02:42:41;;;;;;;10.33;8.70;;;16.10;99.90;;;;;;4957832;29;20490;-87
2022/06/28 02:45:07;;;;;;;11.03;8.03;;;16.10;99.90;;;;;;4957697;29;20460;-87
2022/06/28 02:47:33;;;;;;;11.63;8.00;;;16.10;99.90;;;;;;4957148;29;20180;-87
2022/06/28 02:49:58;;;;;;;9.57;7.60;;;16.00;99.90;;;;;;4957465;29;20546;-88
2022/06/28 02:52:24;;;;;;;10.27;7.20;;;16.00;99.90;;;;;;4957557;29;20176;-86
2022/06/28 02:54:49;;;;;;;9.20;7.37;;;16.00;99.90;;;;;;4957378;29;20178;-88
2022/06/28 02:57:15;;;;;;;7.60;6.90;;;15.90;99.90;;;;;;4957338;29;20173;-87
2022/06/28 02:59:40;;;;;;;10.17;8.27;;;15.80;99.90;;;;;;4957273;29;20183;-86
2022/06/28 03:02:05;;;;;;;8.77;7.87;;;15.80;99.90;;;;;;4955627;29;20563;-87
2022/06/28 03:04:31;;;;;;;8.40;7.00;;;15.70;99.90;;;;;;4957211;29;20212;-87
2022/06/28 03:06:57;;;;;;;8.50;6.77;;;15.60;99.90;;;;;;4955988;29;20208;-85
2022/06/28 03:09:22;;;;;;;8.83;7.77;;;15.50;99.90;;;;;;4956941;29;20677;-86
2022/06/28 03:11:48;;;;;;;8.23;7.10;;;15.40;99.90;;;;;;4957057;29;20180;-85
2022/06/28 03:14:13;;;;;;;8.40;6.93;;;15.40;99.90;;;;;;4956942;28;20171;-85
2022/06/28 03:16:39;;;;;;;10.37;7.43;;;15.40;99.90;;;;;;4956630;29;20187;-86
2022/06/28 03:19:04;;;;;;;7.57;6.40;;;15.30;99.90;;;;;;4956977;29;20704;-86
2022/06/28 03:21:30;;;;;;;8.90;6.53;;;15.30;99.90;;;;;;4956939;29;20233;-86
2022/06/28 03:23:55;;;;;;;8.33;7.43;;;15.30;99.90;;;;;;4956827;29;20664;-86
2022/06/28 03:26:20;;;;;;;8.27;7.47;;;15.30;99.90;;;;;;4957028;29;20245;-86
2022/06/28 03:28:46;;;;;;;10.00;7.60;;;15.10;99.90;;;;;;4956429;28;20186;-86
2022/06/28 03:31:11;;;;;;;10.10;7.33;;;15.20;99.90;;;;;;4954735;28;20177;-84
2022/06/28 03:33:38;;;;;;;12.37;8.70;;;15.30;99.90;;;;;;4955968;28;20325;-86
2022/06/28 03:36:03;;;;;;;9.93;7.40;;;15.40;99.90;;;;;;4956640;29;20170;-87
2022/06/28 03:38:29;;;;;;;9.63;7.33;;;15.40;99.90;;;;;;4956603;29;20999;-85
2022/06/28 03:40:55;;;;;;;8.90;7.30;;;15.50;99.90;;;;;;4955355;28;20643;-85
2022/06/28 03:43:20;;;;;;;8.70;6.80;;;15.60;99.90;;;;;;4955164;29;20213;-85
2022/06/28 03:45:46;;;;;;;8.90;6.70;;;15.60;99.90;;;;;;4956075;29;20183;-85
2022/06/28 03:48:11;;;;;;;7.00;5.67;;;15.70;99.90;;;;;;4954396;28;20627;-85
2022/06/28 03:50:37;;;;;;;6.57;5.37;;;15.70;99.90;;;;;;4956396;29;20185;-85
2022/06/28 03:53:03;;;;;;;11.33;6.13;;;15.70;99.90;;;;;;4955087;29;20265;-86
2022/06/28 03:55:28;;;;;;;6.23;5.63;;;15.80;99.90;;;;;;4956299;29;20181;-85
2022/06/28 03:57:54;;;;;;;6.53;5.90;;;15.80;99.90;;;;;;4956181;29;20422;-83
2022/06/28 04:00:19;;;;;;;8.87;5.73;;;15.70;99.90;;;;;;4956171;28;20600;-87
2022/06/28 04:02:45;;;;;;;6.60;5.53;;;15.70;99.90;;;;;;4955834;29;20706;-86
2022/06/28 04:05:10;;;;;;;10.10;6.20;;;15.70;99.90;;;;;;4956117;29;20192;-87
2022/06/28 04:07:36;;;;;;;6.47;5.57;;;15.60;99.90;;;;;;4956144;29;20189;-87
2022/06/28 04:10:01;;;;;;;8.57;6.27;;;15.70;99.90;;;;;;4955839;29;20333;-87
2022/06/28 04:12:27;;;;;;;6.80;4.90;;;15.60;99.90;;;;;;4956023;29;20234;-86
2022/06/28 04:14:52;;;;;;;7.57;5.40;;;15.70;99.90;;;;;;4956027;29;20197;-86
2022/06/28 04:17:20;;;;;;;9.47;6.60;;;15.70;99.90;;;;;;4955501;28;20579;-86
2022/06/28 04:19:46;;;;;;;9.33;5.50;;;15.80;99.90;;;;;;4955980;29;20270;-87
2022/06/28 04:22:11;;;;;;;7.80;4.90;;;15.80;99.90;;;;;;4956198;29;20461;-88
2022/06/28 04:24:37;;;;;;;5.60;5.00;;;15.90;99.90;;;;;;4964964;29;20262;-86
2022/06/28 04:27:03;;;;;;;5.87;5.27;;;16.00;99.90;;;;;;4962619;29;20260;-86
2022/06/28 04:29:28;;;;;;;7.00;6.30;;;16.10;99.90;;;;;;4961767;29;20182;-86
2022/06/28 04:31:54;;;;;;;6.73;5.03;;;16.20;99.90;;;;;;4955455;29;20900;-84
2022/06/28 04:34:19;;;;;;;7.93;4.43;;;16.20;99.90;;;;;;4955574;29;20211;-85
2022/06/28 04:36:46;;;;;;;7.33;5.33;;;16.30;99.90;;;;;;4955475;29;20214;-85
2022/06/28 04:39:11;;;;;;;10.70;5.63;;;16.20;99.90;;;;;;4955501;29;20406;-87
2022/06/28 04:41:37;;;;;;;5.63;5.10;;;16.30;99.90;;;;;;4955482;29;20633;-88
2022/06/28 04:44:03;;;;;;;7.53;6.10;;;16.30;99.90;;;;;;4955395;29;20215;-87
2022/06/28 04:46:28;;;;;;;10.80;6.90;;;16.30;99.90;;;;;;4954986;28;20216;-87
2022/06/28 04:48:54;;;;;;;9.17;7.67;;;16.40;99.90;;;;;;4956164;29;20500;-87
2022/06/28 04:51:19;;;;;;;11.33;8.47;;;16.40;99.90;;;;;;4956424;29;20656;-86
2022/06/28 04:53:47;;;;;;;10.07;8.40;;;16.50;99.90;;;;;;4955321;29;20182;-87
2022/06/28 04:56:13;;;;;;;11.80;8.40;;;16.40;99.90;;;;;;4955530;29;20167;-89
2022/06/28 04:58:39;;;;;;;7.83;7.03;;;16.40;99.90;;;;;;4955499;28;20427;-87
2022/06/28 05:01:04;;;;;;;9.37;8.20;;;16.40;99.90;;;;;;4955082;29;20180;-88
2022/06/28 05:03:30;;;;;;;11.90;7.17;;;16.50;99.90;;;;;;4954114;29;20683;-86
2022/06/28 05:05:56;;;;;;;10.10;7.70;;;16.50;99.90;;;;;;4964407;28;20207;-88
2022/06/28 05:08:21;;;;;;;9.57;7.43;;;16.60;99.90;;;;;;4954939;29;20721;-83
2022/06/28 05:10:47;;;;;;;9.23;8.33;;;16.90;99.90;;;;;;4954871;28;20200;-81
2022/06/28 05:13:13;;;;;;;8.73;6.20;;;17.20;99.90;;;;;;4955043;29;20271;-86
2022/06/28 05:15:38;;;;;;;10.93;8.50;;;17.40;99.90;;;;;;4954525;29;20169;-87
2022/06/28 05:18:04;;;;;;;9.60;8.27;;;17.40;99.90;;;;;;4955007;28;20181;-85
2022/06/28 05:20:29;;;;;;;9.63;8.37;;;17.30;99.90;;;;;;4953582;29;20173;-86
2022/06/28 05:22:55;;;;;;;13.50;10.03;;;17.30;99.90;;;;;;4954641;28;20209;-87
2022/06/28 05:25:21;;;;;;;10.00;9.03;;;17.40;99.90;;;;;;4954995;28;20197;-87
2022/06/28 05:27:46;;;;;;;12.80;8.50;;;17.30;99.90;;;;;;4954921;29;20174;-86
2022/06/28 05:30:12;;;;;;;9.90;9.00;;;17.40;99.90;;;;;;4954818;29;20647;-87
2022/06/28 05:32:38;;;;;;;10.43;9.30;;;17.50;99.90;;;;;;4954508;28;20208;-88
2022/06/28 05:35:05;;;;;;;9.80;8.90;;;17.50;99.90;;;;;;4954802;28;20252;-87
2022/06/28 05:37:31;;;;;;;12.00;10.53;;;17.40;99.90;;;;;;4954859;29;20434;-85
2022/06/28 05:39:57;;;;;;;12.70;9.80;;;17.40;99.90;;;;;;4954780;28;20414;-87
2022/06/28 05:42:22;;;;;;;12.17;10.90;;;17.50;99.90;;;;;;4954667;29;20482;-86
2022/06/28 05:44:48;;;;;;;15.53;11.63;;;17.40;99.90;;;;;;4954624;28;20187;-87
2022/06/28 05:47:13;;;;;;;14.20;12.70;;;17.40;99.90;;;;;;4954439;28;20183;-86
2022/06/28 05:49:42;;;;;;;13.10;11.10;;;17.50;99.90;;;;;;4954694;28;20662;-86
2022/06/28 05:52:07;;;;;;;14.03;12.37;;;17.60;99.90;;;;;;4954694;28;20215;-86
2022/06/28 05:54:34;;;;;;;14.67;13.23;;;17.80;99.90;;;;;;4954403;28;20426;-86
2022/06/28 05:57:00;;;;;;;14.57;13.00;;;18.10;99.90;;;;;;4954533;28;20187;-86
2022/06/28 05:59:27;;;;;;;16.53;14.80;;;18.40;99.90;;;;;;4954564;28;20424;-88
2022/06/28 06:01:55;;;;;;;20.17;16.47;;;18.60;99.90;;;;;;4953144;28;20576;-87
2022/06/28 06:04:22;;;;;;;14.70;12.90;;;18.50;99.90;;;;;;4954348;28;20483;-87
2022/06/28 06:06:47;;;;;;;14.17;12.77;;;18.70;99.90;;;;;;4954570;28;20416;-86
2022/06/28 06:09:12;;;;;;;14.23;12.73;;;18.80;99.90;;;;;;4953069;28;20523;-87
2022/06/28 06:11:38;;;;;;;13.70;12.40;;;18.70;99.90;;;;;;4956443;28;20178;-86
2022/06/28 06:14:04;;;;;;;13.20;12.00;;;18.60;99.90;;;;;;4958112;28;20207;-86
2022/06/28 06:16:29;;;;;;;14.83;13.37;;;18.60;99.90;;;;;;4957733;28;20214;-86
2022/06/28 06:18:54;;;;;;;15.80;14.10;;;18.40;99.90;;;;;;4958003;28;20184;-86
2022/06/28 06:21:20;;;;;;;15.40;13.30;;;18.60;99.90;;;;;;4957998;28;20569;-86
2022/06/28 06:23:45;;;;;;;15.57;14.03;;;18.70;99.90;;;;;;4956549;28;20209;-87
2022/06/28 06:26:11;;;;;;;13.90;12.80;;;19.10;99.90;;;;;;4957976;28;20215;-87
2022/06/28 06:28:36;;;;;;;15.57;14.00;;;19.50;99.90;;;;;;4958007;28;20649;-87
2022/06/28 06:31:03;;;;;;;15.07;13.73;;;19.70;99.90;;;;;;4957505;28;20232;-85
2022/06/28 06:33:28;;;;;;;15.43;13.93;;;19.70;99.90;;;;;;4957788;28;20781;-87
2022/06/28 06:35:54;;;;;;;15.93;14.00;;;19.60;99.90;;;;;;4957813;28;20543;-88
2022/06/28 06:38:19;;;;;;;11.10;10.10;;;19.30;99.90;;;;;;4957741;28;20256;-87
2022/06/28 06:40:45;;;;;;;11.43;9.53;;;19.00;99.90;;;;;;4956444;28;20211;-87
2022/06/28 06:43:10;;;;;;;12.23;11.03;;;19.50;99.90;;;;;;4957539;29;20216;-87
2022/06/28 06:45:36;;;;;;;11.27;10.13;;;19.80;1.00;;;;;;4957199;28;20172;-88
2022/06/28 06:48:02;;;;;;;12.03;9.70;;;19.50;1.00;;;;;;4957537;28;20180;-87
2022/06/28 06:50:27;;;;;;;8.70;7.90;;;19.20;15.50;;;;;;4956271;29;20539;-87
2022/06/28 06:52:53;;;;;;;9.00;8.20;;;19.10;99.30;;;;;;4956181;29;20189;-85
2022/06/28 06:55:18;;;;;;;8.83;7.27;;;19.20;91.90;;;;;;4957437;29;20192;-86
2022/06/28 06:57:46;;;;;;;8.40;6.80;;;19.00;81.00;;;;;;4957397;29;20176;-85
2022/06/28 07:00:12;;;;;;;7.43;6.73;;;19.00;99.90;;;;;;4955674;29;20180;-87
2022/06/28 07:02:42;;;;;;;7.23;6.53;;;19.10;99.90;;;;;;4957072;28;20427;-86
2022/06/28 07:05:08;;;;;;;7.13;6.37;;;19.60;99.90;;;;;;4957166;29;20510;-88
2022/06/28 07:07:34;;;;;;;4.77;4.37;;;20.60;1.00;;;;;;4957131;29;20417;-86
2022/06/28 07:10:00;;;;;;;5.97;5.23;;;20.60;99.90;;;;;;4956902;29;20469;-84
2022/06/28 07:12:26;;;;;;;7.30;5.17;;;20.00;1.00;;;;;;4957017;29;20228;-86
2022/06/28 07:14:51;;;;;;;5.47;4.97;;;20.10;1.00;;;;;;4957050;28;20815;-86
2022/06/28 07:17:17;;;;;;;5.60;5.10;;;21.30;99.90;;;;;;4956522;29;20176;-85
2022/06/28 07:19:42;;;;;;;4.60;4.07;;;22.80;99.90;;;;;;4956972;29;20186;-86
2022/06/28 07:22:08;;;;;;;4.50;3.83;;;22.00;1.00;;;;;;4955629;28;20226;-86
2022/06/28 07:24:33;;;;;;;4.50;4.10;;;21.60;1.00;;;;;;4955439;29;20676;-86
2022/06/28 07:26:59;;;;;;;7.03;3.47;;;20.80;1.00;;;;;;4956933;29;20177;-89
2022/06/28 07:29:24;;;;;;;2.87;2.50;;;19.80;99.90;;;;;;4955460;29;20185;-84
2022/06/28 07:31:50;;;;;;;3.93;2.97;;;19.30;1.00;;;;;;4956503;28;20250;-83
2022/06/28 07:34:15;;;;;;;7.77;2.90;;;18.80;1.00;;;;;;4962481;28;20212;-86
2022/06/28 07:36:41;;;;;;;4.73;3.20;;;20.20;1.00;;;;;;4956827;29;20179;-84
2022/06/28 07:39:06;;;;;;;4.33;2.37;;;22.10;1.00;;;;;;5010804;23;20239;-87
2022/06/28 07:41:38;;;;;;;5.53;2.70;;;23.60;1.00;;;;;;4995297;28;20180;-84
2022/06/28 07:44:04;;;;;;;6.17;3.40;;;23.20;99.90;;;;;;4995226;28;20270;-87
2022/06/28 07:46:29;;;;;;;6.93;4.00;;;22.10;1.00;;;;;;4994804;28;20415;-86
2022/06/28 07:48:55;;;;;;;9.63;5.17;;;21.00;1.00;;;;;;4995050;28;20233;-85
2022/06/28 07:54:05;;;;;;;5.47;4.93;;;20.90;99.90;;;;;;4995083;28;20689;-85
2022/06/28 07:56:31;;;;;;;2.60;2.40;;;23.00;1.00;;;;;;4993805;28;20422;-86
2022/06/28 07:58:56;;;;;;;3.50;2.63;;;24.20;99.90;;;;;;4994966;28;20271;-85
2022/06/28 08:01:25;;;;;;;3.13;2.40;;;24.50;99.90;;;;;;4994509;28;20778;-85
2022/06/28 08:03:50;;;;;;;2.73;1.83;;;24.90;99.90;;;;;;4993443;28;20216;-85
2022/06/28 08:06:16;;;;;;;3.60;2.67;;;25.30;99.90;;;;;;4977206;28;20422;-85
2022/06/28 08:08:41;;;;;;;1.83;1.30;;;25.70;99.90;;;;;;4994820;28;20176;-84
2022/06/28 08:11:09;;;;;;;3.97;2.53;;;25.90;99.90;;;;;;4994715;28;20242;-86
2022/06/28 08:13:35;;;;;;;3.90;1.33;;;26.00;99.90;;;;;;4994578;28;20175;-86
2022/06/28 08:16:01;;;;;;;2.20;1.60;;;24.50;99.80;;;;;;4994308;28;20419;-87
2022/06/28 08:18:27;;;;;;;2.97;1.30;;;24.80;99.90;;;;;;4994596;28;20430;-87
2022/06/28 08:20:53;;;;;;;2.10;1.20;;;25.40;97.20;;;;;;4993419;28;20411;-87
2022/06/28 08:23:18;;;;;;;1.20;0.60;;;25.70;75.20;;;;;;4994432;28;20215;-88
2022/06/28 08:25:46;;;;;;;2.07;1.00;;;25.80;55.60;;;;;;4993461;28;20183;-88
2022/06/28 08:28:11;;;;;;;2.10;1.47;;;25.60;30.50;;;;;;4993254;28;20651;-87
2022/06/28 08:30:38;;;;;;;4.17;1.40;;;25.50;31.10;;;;;;4993016;28;20479;-83
2022/06/28 08:33:03;;;;;;;7.67;2.50;;;25.90;41.80;;;;;;4994126;28;20659;-87
2022/06/28 08:35:29;;;;;;;4.20;1.20;;;26.40;38.30;;;;;;4993373;28;20427;-85
2022/06/28 08:37:54;;;;;;;2.00;0.90;;;26.10;25.50;;;;;;4994247;28;20206;-84
2022/06/28 08:40:22;;;;;;;1.60;0.73;;;25.50;24.90;;;;;;4994269;28;20219;-84
2022/06/28 08:42:54;;;;;;;2.20;0.90;;;25.80;34.20;;;;;;4994175;28;20695;-83
2022/06/28 08:45:21;;;;;;;2.60;0.50;;;26.70;24.30;;;;;;4994085;28;20969;-91
2022/06/28 08:47:50;;;;;;;1.90;0.47;;;27.00;1.00;;;;;;4994618;28;20415;-84
2022/06/28 08:50:28;;;;;;;1.50;0.43;;;27.20;1.00;;;;;;4994096;28;20488;-83
2022/06/28 08:52:54;;;;;;;2.77;0.67;;;27.50;1.00;;;;;;4994836;28;20490;-90
2022/06/28 08:55:20;;;;;;;2.50;0.50;;;27.30;1.00;;;;;;4994536;28;20443;-80
2022/06/28 08:57:46;;;;;;;1.17;0.43;;;27.20;1.00;;;;;;4994320;28;20506;-83
2022/06/28 09:00:12;;;;;;;1.30;0.50;;;26.90;1.00;;;;;;4992361;28;20419;-83
2022/06/28 09:02:39;;;;;;;2.53;0.47;;;27.30;1.00;;;;;;4993948;28;20410;-83
2022/06/28 09:05:05;;;;;;;3.30;0.40;;;27.50;1.00;;;;;;4994553;28;20617;-90
2022/06/28 09:07:30;;;;;;;1.73;0.30;;;27.60;1.00;;;;;;4994586;28;20423;-89
2022/06/28 09:09:56;;;;;;;2.60;0.60;;;27.90;1.00;;;;;;4995135;28;20924;-83
2022/06/28 09:12:21;;;;;;;2.50;0.40;;;28.00;1.00;;;;;;4994011;28;20203;-84
2022/06/28 09:14:47;;;;;;;0.83;0.33;;;28.00;1.00;;;;;;4993671;28;20172;-90
2022/06/28 09:17:30;;;;;;;2.50;0.50;;;28.00;1.00;;;;;;4993852;28;20712;-83
2022/06/28 09:19:58;;;;;;;1.90;0.47;;;28.10;1.00;;;;;;4998141;28;20179;-82
2022/06/28 09:22:40;;;;;;;1.33;0.27;;;28.00;1.00;;;;;;4996969;28;20825;-82
2022/06/28 09:25:27;;;;;;;1.37;0.30;;;28.00;1.00;;;;;;4994115;28;20493;-82
2022/06/28 09:28:00;;;;;;;2.00;0.20;;;28.10;1.00;;;;;;4994277;28;20402;-84
2022/06/28 09:30:29;;;;;;;3.33;3.03;;;28.60;1.00;;;;;;4993307;28;20423;-83
2022/06/28 09:32:55;;;;;;;1.70;0.47;;;28.90;1.00;;;;;;4993601;28;20485;-84
2022/06/28 09:35:24;;;;;;;2.27;0.40;;;28.80;1.00;;;;;;4993974;28;20419;-84
2022/06/28 09:37:56;;;;;;;3.57;0.60;;;;;;;;;;4993618;28;20175;-86
2022/06/28 09:40:24;;;;;;;1.37;0.33;;;29.30;1.00;;;;;;4993458;28;20454;-84
2022/06/28 09:43:14;;;;;;;3.93;0.40;;;29.30;1.00;;;;;;4992619;28;20487;-85
2022/06/28 09:45:41;;;;;;;1.37;0.20;;;29.90;1.00;;;;;;4996241;28;20410;-87
2022/06/28 09:48:08;;;;;;;0.77;0.20;;;29.00;1.00;;;;;;4996678;28;20430;-85
2022/06/28 09:50:36;;;;;;;1.23;0.30;;;27.20;1.00;;;;;;4996143;28;20419;-84
2022/06/28 09:53:02;;;;;;;3.60;0.77;;;25.90;1.00;;;;;;4997639;28;20415;-84
2022/06/28 09:55:30;;;;;;;2.43;0.40;;;25.60;1.00;;;;;;4997254;28;20520;-87
2022/06/28 09:57:58;;;;;;;3.20;0.47;;;26.90;1.00;;;;;;4997273;28;20414;-85
2022/06/28 10:00:24;;;;;;;1.37;0.77;;;27.90;1.00;;;;;;4996852;28;20505;-85
2022/06/28 10:02:53;;;;;;;1.10;0.20;;;28.50;1.00;;;;;;4997055;28;20458;-83
2022/06/28 10:05:19;;;;;;;2.23;0.30;;;28.80;1.00;;;;;;4997116;28;20426;-84
2022/06/28 10:07:46;;;;;;;1.27;0.30;;;28.50;1.00;;;;;;4996997;28;20501;-86
2022/06/28 10:10:12;;;;;;;4.27;0.60;;;26.80;1.00;;;;;;4997097;28;20406;-84
2022/06/28 10:15:25;;;;;;;1.63;0.30;;;24.20;1.00;;;;;;4996876;28;20537;-84
2022/06/28 10:18:14;;;;;;;0.60;0.20;;;25.60;1.00;;;;;;4996874;28;20443;-83
2022/06/28 10:20:43;;;;;;;0.80;0.30;;;27.80;1.00;;;;;;4996986;28;20501;-87
2022/06/28 10:23:36;;;;;;;1.60;0.20;;;29.00;1.00;;;;;;4996917;28;20497;-84
2022/06/28 10:26:13;;;;;;;3.10;0.77;;;29.60;1.00;;;;;;4997530;28;20473;-85
2022/06/28 10:28:46;;;;;;;1.83;0.27;;;29.10;1.00;;;;;;4997133;28;20481;-85
2022/06/28 10:31:29;;;;;;;0.80;0.30;;;;;;;;;;4999603;28;20415;-85
2022/06/28 10:33:55;;;;;;;1.37;0.20;;;;;;;;;;4998425;28;20461;-89
2022/06/28 10:36:23;;;;;;;1.93;0.23;;;;;;;;;;4997267;28;20419;-86
2022/06/28 10:39:07;;;;;;;1.47;0.70;;;;;;;;;;4998298;28;20416;-88
2022/06/28 10:41:46;;;;;;;2.67;0.30;;;30.60;1.00;;;;;;4995354;28;20447;-86
2022/06/28 10:44:35;;;;;;;2.43;0.50;;;30.70;1.00;;;;;;4995295;28;20482;-84
2022/06/28 10:47:00;;;;;;;1.77;0.40;;;31.00;1.00;;;;;;4989666;28;20416;-85
2022/06/28 10:49:48;;;;;;;2.10;0.40;;;29.70;1.00;;;;;;4996370;28;20186;-86
2022/06/28 10:52:14;;;;;;;2.93;0.47;;;30.30;1.00;;;;;;4996092;28;20179;-87
2022/06/28 10:54:51;;;;;;;0.90;0.20;;;30.40;1.00;;;;;;4994926;28;20430;-87
2022/06/28 10:57:43;;;;;;;1.20;0.40;;;30.40;1.00;;;;;;4994619;28;20838;-88
2022/06/28 11:00:10;;;;;;;1.47;0.33;;;30.30;1.00;;;;;;4990944;28;20430;-89
2022/06/28 11:02:51;;;;;;;1.57;0.80;;;30.60;1.00;;;;;;4995684;28;20490;-87
2022/06/28 11:05:21;;;;;;;1.90;0.30;;;;;;;;;;4996122;28;20415;-88
2022/06/28 11:08:00;;;;;;;2.67;0.40;;;30.60;1.00;;;;;;4996643;28;20421;-88
2022/06/28 11:10:26;;;;;;;1.87;0.50;;;30.70;1.00;;;;;;4997187;28;20934;-90
2022/06/28 11:12:52;;;;;;;2.30;0.53;;;30.40;1.00;;;;;;4997985;28;20435;-90
2022/06/28 11:15:36;;;;;;;1.43;0.40;;;30.80;1.00;;;;;;4999460;28;20553;-87
2022/06/28 11:18:13;;;;;;;0.63;0.30;;;30.80;1.00;;;;;;4996314;28;20711;-88
2022/06/28 11:20:38;;;;;;;2.10;0.40;;;31.00;1.00;;;;;;4996569;28;20441;-93
2022/06/28 11:23:05;;;;;;;2.20;0.50;;;31.20;1.00;;;;;;4995557;28;20506;-86
2022/06/28 11:28:16;;;;;;;2.43;0.30;;;30.70;1.00;;;;;;4996677;28;20458;-84
2022/06/28 11:30:44;;;;;;;0.73;0.30;;;31.20;1.00;;;;;;4996872;28;20418;-91
2022/06/28 11:33:12;;;;;;;2.30;0.40;;;30.90;1.00;;;;;;4994885;28;20199;-94
2022/06/28 11:35:40;;;;;;;1.93;0.50;;;31.10;1.00;;;;;;4994637;28;20418;-86
2022/06/28 11:38:09;;;;;;;4.60;0.80;;;31.30;1.00;;;;;;4995666;28;20407;-86
2022/06/28 11:40:44;;;;;;;2.57;0.47;;;30.80;1.00;;;;;;4995194;28;20545;-86
2022/06/28 11:43:12;;;;;;;1.70;0.50;;;31.70;1.00;;;;;;4993943;28;20466;-87
2022/06/28 11:45:42;;;;;;;2.83;0.67;;;31.90;1.00;;;;;;4993762;28;20463;-87
2022/06/28 11:48:18;;;;;;;1.30;0.40;;;31.40;1.00;;;;;;4995320;28;20921;-86
2022/06/28 11:50:51;;;;;;;2.00;0.30;;;31.60;1.00;;;;;;4995221;28;20769;-86
2022/06/28 11:53:18;;;;;;;1.17;0.33;;;31.50;1.00;;;;;;4995167;28;20891;-87
2022/06/28 11:55:52;;;;;;;1.93;0.40;;;31.20;1.00;;;;;;4995140;28;20849;-86
2022/06/28 11:58:19;;;;;;;1.30;0.30;;;32.00;1.00;;;;;;4995012;28;20415;-86
2022/06/28 12:01:05;;;;;;;1.17;0.30;;;31.80;1.00;;;;;;4993409;28;20450;-87
2022/06/28 12:03:33;;;;;;;7.00;0.83;;;31.60;1.00;;;;;;4994914;28;20462;-87
2022/06/28 12:06:02;;;;;;;2.57;0.50;;;31.00;1.00;;;;;;4994864;28;20429;-87
2022/06/28 12:08:58;;;;;;;1.80;0.37;;;30.00;1.00;;;;;;4994286;28;20407;-84
2022/06/28 12:11:47;;;;;;;2.93;0.43;;;30.60;1.00;;;;;;4995454;28;20407;-86
2022/06/28 12:14:21;;;;;;;1.97;0.40;;;30.90;1.00;;;;;;4994749;28;20409;-87
2022/06/28 12:16:56;;;;;;;1.83;0.70;;;31.30;1.00;;;;;;4994697;28;20403;-87
2022/06/28 12:19:34;;;;;;;3.37;0.70;;;31.40;1.00;;;;;;4993475;28;20458;-86
2022/06/28 12:22:07;;;;;;;1.50;0.40;;;31.40;1.00;;;;;;4994825;28;20410;-86
2022/06/28 12:24:41;;;;;;;2.77;0.50;;;31.40;1.00;;;;;;4993387;28;20502;-86
2022/06/28 12:27:07;;;;;;;1.80;0.20;;;31.50;1.00;;;;;;4993259;28;20795;-85
2022/06/28 12:29:33;;;;;;;0.80;0.43;;;31.80;1.00;;;;;;4994054;28;20858;-83
2022/06/28 12:31:59;;;;;;;2.37;0.97;;;32.10;1.00;;;;;;4994358;28;20454;-84
2022/06/28 12:34:24;;;;;;;1.33;0.30;;;30.30;1.00;;;;;;4992980;28;20660;-84
2022/06/28 12:36:50;;;;;;;0.93;0.60;;;29.80;1.00;;;;;;4994293;28;20222;-83
2022/06/28 12:39:15;;;;;;;1.73;0.47;;;29.30;1.00;;;;;;4994229;28;20258;-86
2022/06/28 12:41:41;;;;;;;0.73;0.20;;;28.30;1.00;;;;;;4992966;28;20538;-87
2022/06/28 12:44:07;;;;;;;2.57;0.20;;;28.30;1.00;;;;;;4993823;28;20269;-88
2022/06/28 12:46:33;;;;;;;1.50;0.50;;;29.60;1.00;;;;;;4994226;28;20168;-85
2022/06/28 12:48:58;;;;;;;1.20;0.37;;;29.20;1.00;;;;;;4989011;28;20176;-86
2022/06/28 12:51:24;;;;;;;1.63;0.50;;;29.00;1.00;;;;;;4985318;28;20165;-86
2022/06/28 12:53:49;;;;;;;2.60;0.33;;;28.80;1.00;;;;;;4982406;28;20184;-86
2022/06/28 12:56:16;;;;;;;2.17;0.50;;;28.80;1.00;;;;;;4983753;28;20323;-86
2022/06/28 12:58:43;;;;;;;1.73;0.50;;;29.80;1.00;;;;;;4983841;28;20176;-85
2022/06/28 13:01:09;;;;;;;1.53;0.40;;;30.40;1.00;;;;;;4981869;28;20764;-85
2022/06/28 13:03:34;;;;;;;3.20;0.50;;;28.70;1.00;;;;;;4982386;28;20470;-84
2022/06/28 13:06:00;;;;;;;2.00;0.50;;;27.60;1.00;;;;;;4980399;28;20172;-85
2022/06/28 13:08:25;;;;;;;3.97;0.87;;;27.10;1.00;;;;;;4987126;28;20327;-85
2022/06/28 13:10:51;;;;;;;2.30;0.63;;;27.80;1.00;;;;;;4983067;28;20179;-86